Time;durP1;ratioP1;P1;durP2;ratioP2;P2;SDS_P1;SDS_P2;PMS_P1;PMS_P2;Temp;Humidity;BMP_temperature;BMP_pressure;BME280_temperature;BME280_humidity;BME280_pressure;Samples;Min_cycle;Max_cycle;Signal;HPM_P1;HPM_P2
2022/12/07 00:02:17;;;;;;;2.13;2.03;;;19.20;39.70;;;;;;4978855;28;20553;-63
2022/12/07 00:04:43;;;;;;;2.20;2.10;;;19.20;39.60;;;;;;4981680;28;20227;-64
2022/12/07 00:07:08;;;;;;;2.10;2.00;;;19.20;39.60;;;;;;4976412;28;20683;-63
2022/12/07 00:09:34;;;;;;;1.90;1.80;;;19.20;39.60;;;;;;4983581;28;20223;-63
2022/12/07 00:11:59;;;;;;;1.77;1.67;;;19.20;39.60;;;;;;4978245;28;20247;-63
2022/12/07 00:14:25;;;;;;;2.27;2.07;;;19.20;39.60;;;;;;4979039;28;20319;-63
2022/12/07 00:16:51;;;;;;;2.40;2.20;;;19.20;39.60;;;;;;4996926;28;20226;-63
2022/12/07 00:19:18;;;;;;;2.30;2.20;;;19.20;39.70;;;;;;4992264;28;20230;-63
2022/12/07 00:21:43;;;;;;;1.93;1.83;;;19.20;39.70;;;;;;4996543;28;20922;-64
2022/12/07 00:24:10;;;;;;;2.60;2.40;;;19.20;39.70;;;;;;4978969;28;20441;-63
2022/12/07 00:26:38;;;;;;;1.97;1.87;;;19.20;39.60;;;;;;4978426;28;20267;-63
2022/12/07 00:29:06;;;;;;;2.50;2.40;;;19.20;39.60;;;;;;4976243;28;20457;-63
2022/12/07 00:31:35;;;;;;;2.33;2.13;;;19.20;39.70;;;;;;4982023;28;20444;-63
2022/12/07 00:34:01;;;;;;;2.20;2.10;;;19.20;39.70;;;;;;4981642;28;20428;-63
2022/12/07 00:36:27;;;;;;;2.23;2.03;;;19.20;39.70;;;;;;4989608;28;20474;-63
2022/12/07 00:38:53;;;;;;;2.10;2.00;;;19.20;39.70;;;;;;4987869;28;20617;-63
2022/12/07 00:41:24;;;;;;;2.03;1.93;;;19.20;39.70;;;;;;4975708;28;20231;-63
2022/12/07 00:43:51;;;;;;;2.30;2.20;;;19.20;39.70;;;;;;4974978;28;20519;-64
2022/12/07 00:46:18;;;;;;;2.33;2.13;;;19.20;39.70;;;;;;4977025;28;20516;-64
2022/12/07 00:48:43;;;;;;;2.10;2.00;;;19.20;39.70;;;;;;4982602;28;20556;-64
2022/12/07 00:51:14;;;;;;;2.00;1.90;;;19.20;39.80;;;;;;4984091;28;20428;-63
2022/12/07 00:53:40;;;;;;;2.13;2.03;;;19.20;39.70;;;;;;4998590;28;20269;-64
2022/12/07 00:56:14;;;;;;;2.00;1.90;;;19.20;39.70;;;;;;4970977;28;20580;-63
2022/12/07 00:58:40;;;;;;;2.10;2.00;;;19.20;39.70;;;;;;4972318;28;20469;-64
2022/12/07 01:01:08;;;;;;;2.20;2.10;;;19.20;39.80;;;;;;4991106;28;20455;-64
2022/12/07 01:03:34;;;;;;;2.27;2.17;;;19.20;39.80;;;;;;4982486;28;20541;-64
2022/12/07 01:06:00;;;;;;;2.27;2.17;;;19.20;39.80;;;;;;4977123;28;20444;-64
2022/12/07 01:08:27;;;;;;;2.40;2.20;;;19.20;39.70;;;;;;4975120;28;20220;-63
2022/12/07 01:11:01;;;;;;;2.30;2.20;;;19.20;39.70;;;;;;4976549;28;20290;-64
2022/12/07 01:13:28;;;;;;;2.03;1.93;;;19.20;39.70;;;;;;4983186;28;20580;-63
2022/12/07 01:15:58;;;;;;;1.83;1.73;;;19.20;39.80;;;;;;4980719;28;20453;-63
2022/12/07 01:18:23;;;;;;;2.30;2.20;;;19.20;39.80;;;;;;4981439;28;23053;-64
2022/12/07 01:21:10;;;;;;;2.33;1.77;;;19.20;39.80;;;;;;4980289;28;20956;-63
2022/12/07 01:23:36;;;;;;;2.23;2.13;;;19.20;39.70;;;;;;4984052;28;20224;-63
2022/12/07 01:26:05;;;;;;;2.07;1.97;;;19.20;39.80;;;;;;4985331;28;20841;-63
2022/12/07 01:28:31;;;;;;;2.57;2.37;;;19.10;39.70;;;;;;4980722;28;20230;-63
2022/12/07 01:31:06;;;;;;;2.20;2.10;;;19.20;39.90;;;;;;4980040;28;20432;-63
2022/12/07 01:33:34;;;;;;;2.43;2.33;;;19.20;39.80;;;;;;4990477;28;20450;-63
2022/12/07 01:36:05;;;;;;;2.00;1.90;;;19.20;39.80;;;;;;4980109;28;20455;-64
2022/12/07 01:38:32;;;;;;;1.80;1.70;;;19.20;39.80;;;;;;4988798;28;20432;-63
2022/12/07 01:40:58;;;;;;;1.90;1.80;;;19.20;39.80;;;;;;4981732;28;20453;-63
2022/12/07 01:43:27;;;;;;;2.60;2.40;;;19.20;39.80;;;;;;4977218;28;20435;-63
2022/12/07 01:45:52;;;;;;;1.97;1.87;;;19.20;39.80;;;;;;5001712;28;20480;-63
2022/12/07 01:48:22;;;;;;;2.13;2.03;;;19.10;39.70;;;;;;4992959;28;21042;-64
2022/12/07 01:50:51;;;;;;;2.13;2.03;;;19.20;39.80;;;;;;4999087;28;20228;-63
2022/12/07 01:53:17;;;;;;;2.37;2.20;;;19.20;39.80;;;;;;4980369;28;20533;-64
2022/12/07 01:55:46;;;;;;;2.10;2.00;;;19.20;39.80;;;;;;4982104;28;20447;-64
2022/12/07 01:58:13;;;;;;;1.93;1.83;;;19.20;39.90;;;;;;4978488;28;21353;-64
2022/12/07 02:00:39;;;;;;;2.23;2.13;;;19.20;39.90;;;;;;4980612;28;20787;-63
2022/12/07 02:03:28;;;;;;;2.30;2.13;;;19.20;39.90;;;;;;4978141;28;20423;-63
2022/12/07 02:05:55;;;;;;;2.10;1.90;;;19.20;39.80;;;;;;4987690;28;20484;-63
2022/12/07 02:08:21;;;;;;;2.13;2.03;;;19.10;39.80;;;;;;4990039;28;21510;-63
2022/12/07 02:10:47;;;;;;;2.00;1.90;;;19.10;39.80;;;;;;4982994;28;20449;-63
2022/12/07 02:13:15;;;;;;;2.07;1.97;;;19.20;39.90;;;;;;4977622;28;21125;-63
2022/12/07 02:15:51;;;;;;;1.90;1.80;;;19.20;39.80;;;;;;4993391;28;20242;-64
2022/12/07 02:18:39;;;;;;;2.00;1.90;;;19.20;39.80;;;;;;4999901;28;20587;-64
2022/12/07 02:21:23;;;;;;;2.60;2.40;;;19.20;39.80;;;;;;5002064;28;20431;-63
2022/12/07 02:24:29;;;;;;;1.97;1.87;;;19.20;39.80;;;;;;5001482;28;20436;-64
2022/12/07 02:27:13;;;;;;;2.50;2.40;;;19.10;39.70;;;;;;4995408;28;20441;-64
2022/12/07 02:29:46;;;;;;;1.90;1.80;;;19.20;39.90;;;;;;4989041;28;20563;-63
2022/12/07 02:32:37;;;;;;;2.00;1.90;;;19.20;40.00;;;;;;4996687;28;20995;-64
2022/12/07 02:35:11;;;;;;;1.90;1.80;;;19.20;39.90;;;;;;4995623;28;20424;-63
2022/12/07 02:38:06;;;;;;;1.80;1.70;;;19.20;39.90;;;;;;5001002;28;20485;-63
2022/12/07 02:40:35;;;;;;;1.93;1.83;;;19.20;39.90;;;;;;4983885;28;20448;-63
2022/12/07 02:43:13;;;;;;;2.00;1.90;;;19.10;39.80;;;;;;4993000;28;20424;-64
2022/12/07 02:45:41;;;;;;;2.10;2.00;;;19.20;40.70;;;;;;5000419;28;20570;-63
2022/12/07 02:48:09;;;;;;;2.07;1.97;;;19.10;39.80;;;;;;5001005;28;20423;-63
2022/12/07 02:50:35;;;;;;;2.17;2.07;;;19.20;39.90;;;;;;4993681;28;20528;-63
2022/12/07 02:53:00;;;;;;;2.00;1.90;;;19.20;40.00;;;;;;4998689;28;20468;-64
2022/12/07 02:55:31;;;;;;;2.43;2.33;;;19.20;39.90;;;;;;4998172;28;20220;-63
2022/12/07 02:58:12;;;;;;;1.80;1.70;;;19.20;39.90;;;;;;5000243;28;20908;-64
2022/12/07 03:00:52;;;;;;;1.90;1.80;;;19.20;39.90;;;;;;4991163;28;21860;-63
2022/12/07 03:03:18;;;;;;;1.97;1.87;;;19.20;39.90;;;;;;4975371;28;20520;-63
2022/12/07 03:06:27;;;;;;;2.13;2.03;;;19.20;39.90;;;;;;4987607;28;21010;-63
2022/12/07 03:09:31;;;;;;;2.27;2.07;;;19.20;40.00;;;;;;4981587;28;20432;-63
2022/12/07 03:12:14;;;;;;;2.23;2.03;;;19.20;39.90;;;;;;4988966;28;20494;-63
2022/12/07 03:14:48;;;;;;;2.07;1.97;;;19.10;39.90;;;;;;4997748;28;20472;-63
2022/12/07 03:17:19;;;;;;;1.80;1.70;;;19.20;40.00;;;;;;4979560;28;20451;-63
2022/12/07 03:19:46;;;;;;;2.00;1.90;;;19.20;40.00;;;;;;4980498;28;20468;-64
2022/12/07 03:22:13;;;;;;;2.10;2.00;;;19.20;40.00;;;;;;4980305;28;20527;-63
2022/12/07 03:24:41;;;;;;;2.00;1.90;;;19.20;40.00;;;;;;4981551;28;20912;-63
2022/12/07 03:27:13;;;;;;;1.90;1.80;;;19.20;40.00;;;;;;4980621;28;20447;-63
2022/12/07 03:29:46;;;;;;;1.90;1.80;;;19.20;40.00;;;;;;4996873;28;20441;-64
2022/12/07 03:32:23;;;;;;;1.80;1.70;;;19.20;40.00;;;;;;4983487;28;20422;-64
2022/12/07 03:34:57;;;;;;;2.20;2.10;;;19.10;39.80;;;;;;4987844;28;20481;-63
2022/12/07 03:37:50;;;;;;;2.00;1.90;;;19.20;39.90;;;;;;4976203;28;20443;-63
2022/12/07 03:40:25;;;;;;;2.20;2.10;;;19.20;40.00;;;;;;4994618;28;20983;-63
2022/12/07 03:42:52;;;;;;;1.83;1.73;;;19.20;40.00;;;;;;5000395;28;20443;-63
2022/12/07 03:45:19;;;;;;;1.80;1.70;;;19.10;39.90;;;;;;4998919;28;20435;-63
2022/12/07 03:48:04;;;;;;;1.70;1.60;;;19.20;40.00;;;;;;5000736;28;20480;-63
2022/12/07 03:51:06;;;;;;;1.97;1.87;;;19.20;40.00;;;;;;5002855;28;21325;-64
2022/12/07 03:53:40;;;;;;;1.97;1.87;;;19.10;39.90;;;;;;4987105;28;20958;-63
2022/12/07 03:56:07;;;;;;;2.20;2.10;;;19.20;40.00;;;;;;4995649;28;20507;-63
2022/12/07 03:58:34;;;;;;;2.23;2.13;;;19.20;40.00;;;;;;5002395;28;21804;-63
2022/12/07 04:01:00;;;;;;;1.70;1.60;;;19.20;40.00;;;;;;5002276;28;20454;-63
2022/12/07 04:03:26;;;;;;;2.10;2.00;;;19.20;40.00;;;;;;4997413;28;20612;-64
2022/12/07 04:05:51;;;;;;;1.77;1.67;;;19.10;40.00;;;;;;5001635;28;20446;-63
2022/12/07 04:08:17;;;;;;;1.80;1.70;;;19.20;40.00;;;;;;4999226;28;20725;-63
2022/12/07 04:10:42;;;;;;;1.80;1.70;;;19.10;39.90;;;;;;4994445;28;20632;-63
2022/12/07 04:13:08;;;;;;;2.00;1.90;;;19.20;40.00;;;;;;4998292;28;20569;-64
2022/12/07 04:15:34;;;;;;;1.80;1.70;;;19.20;40.10;;;;;;4999138;28;20254;-63
2022/12/07 04:17:59;;;;;;;2.10;2.00;;;19.20;40.00;;;;;;4997658;28;20215;-63
2022/12/07 04:20:25;;;;;;;1.77;1.67;;;19.10;40.00;;;;;;5000573;28;20579;-63
2022/12/07 04:22:50;;;;;;;1.80;1.70;;;19.10;40.00;;;;;;5002686;28;20230;-63
2022/12/07 04:25:16;;;;;;;1.60;1.50;;;19.10;40.00;;;;;;5005256;28;20210;-63
2022/12/07 04:27:42;;;;;;;1.83;1.73;;;19.20;40.00;;;;;;4999466;28;20226;-63
2022/12/07 04:30:08;;;;;;;1.67;1.57;;;19.10;40.00;;;;;;5004378;28;20212;-63
2022/12/07 04:32:34;;;;;;;1.53;1.43;;;19.20;40.00;;;;;;5002824;28;20235;-63
2022/12/07 04:34:59;;;;;;;2.00;1.90;;;19.20;40.00;;;;;;4999660;28;20461;-63
2022/12/07 04:37:25;;;;;;;1.80;1.70;;;19.10;40.00;;;;;;4997839;28;20571;-63
2022/12/07 04:39:50;;;;;;;1.80;1.70;;;19.10;40.00;;;;;;5005051;28;20231;-64
2022/12/07 04:42:16;;;;;;;1.73;1.63;;;19.20;40.00;;;;;;5002861;28;20557;-63
2022/12/07 04:44:41;;;;;;;1.97;1.87;;;19.20;40.00;;;;;;4998133;28;20219;-64
2022/12/07 04:47:07;;;;;;;1.83;1.73;;;19.20;40.00;;;;;;5001315;28;20227;-63
2022/12/07 04:49:32;;;;;;;1.90;1.80;;;19.20;40.00;;;;;;5001942;28;20289;-63
2022/12/07 04:51:58;;;;;;;2.00;1.90;;;19.10;40.00;;;;;;5002643;28;20251;-63
2022/12/07 04:54:23;;;;;;;1.67;1.57;;;19.20;40.00;;;;;;4996188;28;20219;-64
2022/12/07 04:56:49;;;;;;;1.90;1.80;;;19.10;39.90;;;;;;4988156;28;20223;-64
2022/12/07 04:59:16;;;;;;;1.83;1.73;;;19.20;40.00;;;;;;5001724;28;20998;-65
2022/12/07 05:01:42;;;;;;;1.60;1.50;;;19.20;39.90;;;;;;4998523;28;20755;-64
2022/12/07 05:04:08;;;;;;;1.80;1.70;;;19.20;39.90;;;;;;4999928;28;20827;-62
2022/12/07 05:06:34;;;;;;;1.57;1.47;;;19.20;39.90;;;;;;4997821;28;20259;-63
2022/12/07 05:08:59;;;;;;;1.80;1.70;;;19.20;39.90;;;;;;4978148;28;20440;-63
2022/12/07 05:11:40;;;;;;;1.83;1.73;;;19.20;39.90;;;;;;4989762;28;20469;-64
2022/12/07 05:14:08;;;;;;;1.60;1.50;;;19.20;39.90;;;;;;4994571;28;20216;-63
2022/12/07 05:16:34;;;;;;;1.77;1.67;;;19.20;39.90;;;;;;4996294;28;20472;-64
2022/12/07 05:19:00;;;;;;;1.40;1.30;;;19.20;39.80;;;;;;4980198;28;20439;-63
2022/12/07 05:21:25;;;;;;;1.57;1.47;;;19.30;39.90;;;;;;4972406;28;20436;-64
2022/12/07 05:23:51;;;;;;;1.80;1.70;;;19.30;39.80;;;;;;4982810;28;20235;-64
2022/12/07 05:26:17;;;;;;;1.80;1.70;;;19.30;39.80;;;;;;4978125;28;20372;-63
2022/12/07 05:28:42;;;;;;;1.73;1.63;;;19.30;39.70;;;;;;4989134;28;20219;-64
2022/12/07 05:31:08;;;;;;;1.90;1.77;;;19.30;39.70;;;;;;4999818;28;20211;-63
2022/12/07 05:33:33;;;;;;;1.70;1.60;;;19.30;39.70;;;;;;4994513;28;20269;-63
2022/12/07 05:36:05;;;;;;;1.70;1.60;;;19.30;39.60;;;;;;4993836;28;20220;-64
2022/12/07 05:38:33;;;;;;;1.70;1.60;;;19.30;39.70;;;;;;4990250;28;20228;-63
2022/12/07 05:41:03;;;;;;;1.77;1.67;;;19.30;39.60;;;;;;4971009;28;20454;-63
2022/12/07 05:43:29;;;;;;;2.43;1.97;;;19.40;39.70;;;;;;4969462;28;20462;-62
2022/12/07 05:45:54;;;;;;;1.53;1.43;;;19.30;39.60;;;;;;4991407;28;20537;-62
2022/12/07 05:48:20;;;;;;;1.73;1.60;;;19.40;39.70;;;;;;4991993;28;20431;-63
2022/12/07 05:50:48;;;;;;;1.50;1.40;;;19.30;39.70;;;;;;4979467;28;20328;-63
2022/12/07 05:53:14;;;;;;;1.57;1.47;;;19.30;39.70;;;;;;4977438;28;20303;-63
2022/12/07 05:55:40;;;;;;;1.60;1.50;;;19.30;39.70;;;;;;4993308;28;20456;-63
2022/12/07 06:00:56;;;;;;;1.50;1.40;;;19.30;39.70;;;;;;4993810;28;20674;-63
2022/12/07 06:03:21;;;;;;;1.80;1.70;;;19.30;39.70;;;;;;4995697;28;21149;-63
2022/12/07 06:05:47;;;;;;;1.57;1.47;;;19.30;39.70;;;;;;4994447;28;20442;-60
2022/12/07 06:08:14;;;;;;;1.80;1.70;;;19.30;39.70;;;;;;4993923;28;20324;-63
2022/12/07 06:10:41;;;;;;;1.60;1.50;;;19.30;39.80;;;;;;4983612;28;20688;-63
2022/12/07 06:13:07;;;;;;;1.83;1.73;;;19.30;39.70;;;;;;4979650;28;20451;-62
2022/12/07 06:15:32;;;;;;;1.60;1.50;;;19.30;40.50;;;;;;4980807;28;20462;-62
2022/12/07 06:17:58;;;;;;;1.93;1.83;;;19.30;39.70;;;;;;4979952;28;20232;-63
2022/12/07 06:20:23;;;;;;;1.50;1.40;;;19.30;39.70;;;;;;4994072;28;21333;-62
2022/12/07 06:22:49;;;;;;;1.70;1.60;;;19.30;39.70;;;;;;4988613;28;20223;-62
2022/12/07 06:25:14;;;;;;;1.80;1.70;;;19.30;39.60;;;;;;4974140;28;20663;-62
2022/12/07 06:27:40;;;;;;;3.73;1.40;;;19.30;39.80;;;;;;4997717;28;20259;-62
2022/12/07 06:30:08;;;;;;;1.80;1.70;;;19.30;39.70;;;;;;4974722;28;20586;-62
2022/12/07 06:32:34;;;;;;;2.20;1.50;;;19.30;39.70;;;;;;4981041;28;20223;-62
2022/12/07 06:35:00;;;;;;;1.63;1.53;;;19.30;39.70;;;;;;4977869;28;20454;-62
2022/12/07 06:37:25;;;;;;;1.67;1.40;;;19.30;39.60;;;;;;4976056;28;20954;-62
2022/12/07 06:39:51;;;;;;;2.43;2.23;;;19.30;39.70;;;;;;4993655;28;20234;-62
2022/12/07 06:42:16;;;;;;;1.70;1.60;;;19.30;39.60;;;;;;4992323;28;20215;-62
2022/12/07 06:44:42;;;;;;;2.03;1.70;;;19.30;39.60;;;;;;4978284;28;20279;-62
2022/12/07 06:47:09;;;;;;;1.67;1.57;;;19.40;39.60;;;;;;4977123;28;20260;-62
2022/12/07 06:49:34;;;;;;;2.00;1.40;;;19.30;39.60;;;;;;4984494;28;20243;-62
2022/12/07 06:52:00;;;;;;;1.70;1.60;;;19.30;39.60;;;;;;4979301;28;20599;-62
2022/12/07 06:54:26;;;;;;;1.83;1.63;;;19.40;39.70;;;;;;4996057;28;20235;-62
2022/12/07 06:56:51;;;;;;;2.63;1.80;;;19.30;39.60;;;;;;4976701;28;20231;-62
2022/12/07 06:59:16;;;;;;;2.00;1.83;;;19.30;39.60;;;;;;4986502;28;20219;-62
2022/12/07 07:01:42;;;;;;;1.70;1.60;;;19.30;39.70;;;;;;4997281;28;20223;-62
2022/12/07 07:04:08;;;;;;;1.90;1.80;;;19.30;39.60;;;;;;4996287;28;20227;-61
2022/12/07 07:06:33;;;;;;;1.70;1.60;;;19.30;39.70;;;;;;5001594;28;20593;-62
2022/12/07 07:08:59;;;;;;;2.00;1.63;;;19.30;39.70;;;;;;4992946;28;20212;-62
2022/12/07 07:11:25;;;;;;;1.60;1.50;;;19.30;39.60;;;;;;4983465;28;20311;-62
2022/12/07 07:13:50;;;;;;;1.47;1.37;;;19.30;39.70;;;;;;4985264;28;23099;-62
2022/12/07 07:16:16;;;;;;;1.60;1.50;;;19.30;39.70;;;;;;4980736;28;20219;-62
2022/12/07 07:18:41;;;;;;;1.80;1.60;;;19.30;39.60;;;;;;4979619;28;20758;-62
2022/12/07 07:21:07;;;;;;;1.60;1.50;;;19.30;39.70;;;;;;4999674;28;20231;-63
2022/12/07 07:23:33;;;;;;;1.50;1.40;;;19.30;39.70;;;;;;4999817;28;20575;-62
2022/12/07 07:25:58;;;;;;;2.53;1.53;;;19.30;39.70;;;;;;4994326;28;20207;-62
2022/12/07 07:28:24;;;;;;;1.60;1.50;;;19.30;39.70;;;;;;4984860;28;20230;-62
2022/12/07 07:30:50;;;;;;;1.90;1.50;;;19.30;39.60;;;;;;4982160;28;20722;-62
2022/12/07 07:33:15;;;;;;;1.60;1.50;;;19.30;39.60;;;;;;4994398;28;20220;-62
2022/12/07 07:35:41;;;;;;;1.57;1.43;;;19.30;39.60;;;;;;4995122;28;20261;-62
2022/12/07 07:38:08;;;;;;;2.47;1.60;;;19.30;39.70;;;;;;4999661;28;20223;-61
2022/12/07 07:40:34;;;;;;;1.50;1.40;;;19.30;39.70;;;;;;4999818;28;20223;-62
2022/12/07 07:42:59;;;;;;;2.00;1.47;;;19.30;39.60;;;;;;4985671;28;20421;-62
2022/12/07 07:45:26;;;;;;;1.97;1.60;;;19.30;39.70;;;;;;4976243;28;20230;-62
2022/12/07 07:47:51;;;;;;;1.67;1.57;;;19.30;39.60;;;;;;4987875;28;20228;-62
2022/12/07 07:50:18;;;;;;;1.53;1.43;;;19.30;39.70;;;;;;4980907;28;20459;-62
2022/12/07 07:52:44;;;;;;;1.70;1.60;;;19.30;39.70;;;;;;4987824;28;20258;-62
2022/12/07 07:55:10;;;;;;;1.77;1.33;;;19.30;39.60;;;;;;4980092;28;20521;-62
2022/12/07 07:57:37;;;;;;;1.50;1.40;;;19.30;39.70;;;;;;4986915;28;20445;-62
2022/12/07 08:00:06;;;;;;;1.63;1.53;;;19.30;39.70;;;;;;4987924;28;20428;-62
2022/12/07 08:02:32;;;;;;;2.10;1.63;;;19.30;39.70;;;;;;4983528;28;20961;-62
2022/12/07 08:04:57;;;;;;;1.63;1.53;;;19.30;39.60;;;;;;4997866;28;20591;-62
2022/12/07 08:07:23;;;;;;;2.30;1.50;;;19.30;39.70;;;;;;4995000;28;20242;-62
2022/12/07 08:09:48;;;;;;;1.40;1.30;;;19.30;39.60;;;;;;4987633;28;20216;-62
2022/12/07 08:12:14;;;;;;;1.60;1.50;;;19.30;39.60;;;;;;4979237;28;20582;-62
2022/12/07 08:14:39;;;;;;;1.43;1.33;;;19.30;39.60;;;;;;4977775;28;20236;-62
2022/12/07 08:17:05;;;;;;;1.40;1.30;;;19.30;39.60;;;;;;4984412;28;20315;-62
2022/12/07 08:19:30;;;;;;;2.00;1.23;;;19.30;39.60;;;;;;4981761;28;20643;-62
2022/12/07 08:21:56;;;;;;;1.40;1.30;;;19.30;39.60;;;;;;4987153;28;20261;-62
2022/12/07 08:24:22;;;;;;;2.20;2.00;;;19.30;39.60;;;;;;4985777;28;20283;-62
2022/12/07 08:26:49;;;;;;;1.83;1.67;;;19.30;39.60;;;;;;4974461;28;20250;-61
2022/12/07 08:29:15;;;;;;;2.00;1.50;;;19.30;39.60;;;;;;4983542;28;20436;-62
2022/12/07 08:31:40;;;;;;;1.30;1.20;;;19.30;39.60;;;;;;4985433;28;20437;-61
2022/12/07 08:34:06;;;;;;;1.80;1.70;;;19.30;39.60;;;;;;4981670;28;21947;-62
2022/12/07 08:36:31;;;;;;;1.37;1.27;;;19.30;39.60;;;;;;4982141;28;20246;-62
2022/12/07 08:38:57;;;;;;;1.70;1.60;;;19.30;39.60;;;;;;4976317;28;20227;-62
2022/12/07 08:41:22;;;;;;;1.33;1.23;;;19.30;39.60;;;;;;4976244;28;20444;-62
2022/12/07 08:43:48;;;;;;;1.30;1.20;;;19.30;39.60;;;;;;4980665;28;20522;-62
2022/12/07 08:46:25;;;;;;;2.40;1.20;;;19.30;39.60;;;;;;5001274;28;20721;-62
2022/12/07 08:49:04;;;;;;;1.50;1.40;;;19.30;39.60;;;;;;5001261;28;20318;-62
2022/12/07 08:51:30;;;;;;;1.80;1.70;;;19.30;39.60;;;;;;4994483;28;20466;-62
2022/12/07 08:53:58;;;;;;;2.07;1.47;;;19.30;39.60;;;;;;4999186;28;20460;-62
2022/12/07 08:56:24;;;;;;;1.80;1.40;;;19.30;39.60;;;;;;4999772;28;20224;-62
2022/12/07 08:58:50;;;;;;;1.43;1.33;;;19.30;39.70;;;;;;4977567;28;20473;-61
2022/12/07 09:01:15;;;;;;;1.37;1.27;;;19.30;39.60;;;;;;4994968;28;20899;-62
2022/12/07 09:03:41;;;;;;;1.37;1.27;;;19.30;39.70;;;;;;4997956;28;21118;-61
2022/12/07 09:06:07;;;;;;;1.40;1.30;;;19.30;39.60;;;;;;4996417;28;20269;-62
2022/12/07 09:08:37;;;;;;;1.50;1.20;;;19.30;40.40;;;;;;4995727;28;20954;-61
2022/12/07 09:11:02;;;;;;;1.33;1.20;;;19.30;39.70;;;;;;4982663;28;20436;-62
2022/12/07 09:13:28;;;;;;;1.50;1.40;;;19.30;39.70;;;;;;4977672;28;20457;-62
2022/12/07 09:15:53;;;;;;;1.43;1.33;;;19.30;39.70;;;;;;4973026;28;20248;-62
2022/12/07 09:18:19;;;;;;;1.40;1.30;;;19.30;39.60;;;;;;4986858;28;20215;-62
2022/12/07 09:20:45;;;;;;;1.50;1.40;;;19.30;40.50;;;;;;4986219;28;20240;-62
2022/12/07 09:23:10;;;;;;;1.57;1.33;;;19.30;39.60;;;;;;4980936;28;20211;-62
2022/12/07 09:25:36;;;;;;;1.40;1.30;;;19.30;39.70;;;;;;4977589;28;20239;-62
2022/12/07 09:28:01;;;;;;;1.60;1.40;;;19.30;39.70;;;;;;4978675;28;20251;-62
2022/12/07 09:30:27;;;;;;;1.30;1.20;;;19.30;39.70;;;;;;4979073;28;20709;-62
2022/12/07 09:32:55;;;;;;;1.40;1.30;;;19.30;40.50;;;;;;4976788;28;20228;-62
2022/12/07 09:35:21;;;;;;;1.40;1.30;;;19.30;39.70;;;;;;4979760;28;20568;-61
2022/12/07 09:37:46;;;;;;;1.53;1.43;;;19.30;39.70;;;;;;4972247;28;20470;-62
2022/12/07 09:40:14;;;;;;;1.67;1.57;;;19.30;39.70;;;;;;4979441;28;20302;-61
2022/12/07 09:42:44;;;;;;;1.30;1.20;;;19.30;39.70;;;;;;4983005;28;20235;-62
2022/12/07 09:45:26;;;;;;;1.80;1.40;;;19.30;39.70;;;;;;4975480;28;20473;-62
2022/12/07 09:47:52;;;;;;;2.20;1.00;;;19.20;39.60;;;;;;4984874;28;20488;-62
2022/12/07 09:50:24;;;;;;;1.57;1.47;;;19.30;39.70;;;;;;4980231;28;21138;-62
2022/12/07 09:52:51;;;;;;;1.60;1.50;;;19.30;39.70;;;;;;4975906;28;20231;-61
2022/12/07 09:55:24;;;;;;;1.70;1.40;;;19.20;39.60;;;;;;4976998;28;20461;-62
2022/12/07 09:57:51;;;;;;;1.50;1.40;;;19.30;39.80;;;;;;4976815;28;20536;-62
2022/12/07 10:00:21;;;;;;;1.50;1.40;;;19.30;39.70;;;;;;4972314;28;20509;-62
2022/12/07 10:02:57;;;;;;;1.20;1.10;;;19.30;39.70;;;;;;4994705;28;21168;-62
2022/12/07 10:05:50;;;;;;;1.40;1.30;;;19.30;39.70;;;;;;4993202;28;20925;-63
2022/12/07 10:08:17;;;;;;;1.63;1.53;;;19.30;39.70;;;;;;4978707;28;20980;-62
2022/12/07 10:10:44;;;;;;;1.10;1.00;;;19.20;39.60;;;;;;4985974;28;20501;-62
2022/12/07 10:13:18;;;;;;;1.70;1.27;;;19.20;39.60;;;;;;4969694;28;20475;-62
2022/12/07 10:15:53;;;;;;;1.73;1.50;;;19.20;39.60;;;;;;4985767;28;20550;-62
2022/12/07 10:18:19;;;;;;;1.00;1.00;;;19.20;39.60;;;;;;4980051;28;20488;-61
2022/12/07 10:20:46;;;;;;;2.10;1.40;;;19.30;39.70;;;;;;4993864;28;20475;-62
2022/12/07 10:23:17;;;;;;;1.60;1.40;;;19.20;39.60;;;;;;4998456;28;20428;-62
2022/12/07 10:25:44;;;;;;;1.87;1.40;;;19.30;39.80;;;;;;4995526;28;20439;-62
2022/12/07 10:28:17;;;;;;;1.83;1.40;;;19.30;39.70;;;;;;4997578;28;20491;-62
2022/12/07 10:31:15;;;;;;;1.83;1.30;;;19.30;39.70;;;;;;4996144;28;20445;-62
2022/12/07 10:33:59;;;;;;;1.50;1.40;;;19.20;39.60;;;;;;4994263;28;20453;-62
2022/12/07 10:36:38;;;;;;;1.40;1.30;;;19.20;39.60;;;;;;4981992;28;20454;-63
2022/12/07 10:39:16;;;;;;;1.30;1.20;;;19.30;39.70;;;;;;4985142;28;20457;-62
2022/12/07 10:41:54;;;;;;;1.20;1.10;;;19.20;39.60;;;;;;4985232;28;20431;-63
2022/12/07 10:44:23;;;;;;;1.30;1.20;;;19.20;39.60;;;;;;4989172;28;21266;-62
2022/12/07 10:47:24;;;;;;;1.30;1.20;;;19.30;39.70;;;;;;4980502;28;20924;-62
2022/12/07 10:50:14;;;;;;;1.23;1.13;;;19.30;39.70;;;;;;4978451;28;20458;-62
2022/12/07 10:52:49;;;;;;;1.33;1.23;;;19.30;39.70;;;;;;4998044;28;20509;-62
2022/12/07 10:55:26;;;;;;;1.20;1.10;;;19.30;39.70;;;;;;4989265;28;20463;-63
2022/12/07 10:58:03;;;;;;;1.20;1.10;;;19.20;39.60;;;;;;4985752;28;20432;-62
2022/12/07 11:00:56;;;;;;;1.60;1.50;;;19.30;39.70;;;;;;4987918;28;20590;-62
2022/12/07 11:03:45;;;;;;;1.27;1.17;;;19.30;39.70;;;;;;4978930;28;20436;-62
2022/12/07 11:06:17;;;;;;;1.50;1.40;;;19.20;39.60;;;;;;4984879;28;20533;-62
2022/12/07 11:09:17;;;;;;;1.33;1.23;;;19.20;39.60;;;;;;4988883;28;20959;-63
2022/12/07 11:12:17;;;;;;;1.40;1.30;;;19.20;39.60;;;;;;5004153;28;20476;-62
2022/12/07 11:15:10;;;;;;;1.50;1.40;;;19.20;39.60;;;;;;4988971;28;20627;-62
2022/12/07 11:17:45;;;;;;;1.20;1.10;;;19.30;39.80;;;;;;5006591;28;20522;-62
2022/12/07 11:20:36;;;;;;;1.50;1.30;;;19.20;39.70;;;;;;4999813;28;20515;-62
2022/12/07 11:23:25;;;;;;;1.47;1.27;;;19.30;39.80;;;;;;4989746;28;21747;-62
2022/12/07 11:25:58;;;;;;;1.40;1.30;;;19.30;39.70;;;;;;5001057;28;20449;-62
2022/12/07 11:28:43;;;;;;;1.57;1.47;;;19.20;39.60;;;;;;5004169;28;20426;-62
2022/12/07 11:31:25;;;;;;;1.40;1.30;;;19.20;39.60;;;;;;4988760;28;20425;-62
2022/12/07 11:34:04;;;;;;;1.23;1.13;;;19.20;39.60;;;;;;4983294;28;20436;-62
2022/12/07 11:36:32;;;;;;;1.10;1.00;;;19.30;39.70;;;;;;4983374;28;20470;-62
2022/12/07 11:39:03;;;;;;;1.83;1.50;;;19.30;39.70;;;;;;4988964;28;20453;-62
2022/12/07 11:41:34;;;;;;;1.17;1.07;;;19.20;39.60;;;;;;4988642;28;20464;-62
2022/12/07 11:44:25;;;;;;;1.37;1.27;;;19.30;39.70;;;;;;4990161;28;20422;-62
2022/12/07 11:46:58;;;;;;;1.10;1.00;;;19.30;39.60;;;;;;5005340;28;20558;-62
2022/12/07 11:49:37;;;;;;;1.40;1.30;;;19.20;39.60;;;;;;5005264;28;20949;-62
2022/12/07 11:52:05;;;;;;;1.30;1.20;;;19.30;39.70;;;;;;4991216;28;20938;-62
2022/12/07 11:54:38;;;;;;;1.23;1.13;;;19.30;39.70;;;;;;4995744;28;20569;-62
2022/12/07 11:57:13;;;;;;;1.20;1.10;;;19.30;40.40;;;;;;5001540;28;20944;-61
2022/12/07 11:59:49;;;;;;;1.27;1.17;;;19.30;39.60;;;;;;5013603;28;20927;-62
2022/12/07 12:02:24;;;;;;;1.40;1.30;;;19.30;39.60;;;;;;4988284;28;20428;-62
2022/12/07 12:05:05;;;;;;;1.50;1.40;;;19.30;39.70;;;;;;4996429;28;21046;-62
2022/12/07 12:07:31;;;;;;;1.87;1.77;;;19.30;39.60;;;;;;4982576;28;20488;-61
2022/12/07 12:10:06;;;;;;;1.40;1.30;;;19.30;40.40;;;;;;4982436;28;20517;-62
2022/12/07 12:12:37;;;;;;;1.40;1.30;;;19.30;39.60;;;;;;4990474;28;20494;-61
2022/12/07 12:15:34;;;;;;;1.60;1.50;;;19.30;39.70;;;;;;4985824;28;20980;-61
2022/12/07 12:18:14;;;;;;;1.30;1.20;;;19.30;39.60;;;;;;4995465;28;20950;-61
2022/12/07 12:20:51;;;;;;;1.30;1.20;;;19.30;39.70;;;;;;4998687;28;20444;-61
2022/12/07 12:23:21;;;;;;;1.10;1.00;;;19.30;39.60;;;;;;4985626;28;20457;-62
2022/12/07 12:25:50;;;;;;;1.30;1.20;;;19.30;39.70;;;;;;4978231;28;20469;-62
2022/12/07 12:28:40;;;;;;;1.30;1.20;;;19.30;39.60;;;;;;4980810;28;20736;-62
2022/12/07 12:31:20;;;;;;;1.30;1.20;;;19.30;39.60;;;;;;4979371;28;20473;-62
2022/12/07 12:33:47;;;;;;;1.30;1.20;;;19.30;39.70;;;;;;4996965;28;20435;-62
2022/12/07 12:36:15;;;;;;;1.20;1.10;;;19.30;39.70;;;;;;4990121;28;20523;-63
2022/12/07 12:38:59;;;;;;;1.20;1.10;;;19.30;39.60;;;;;;4980931;28;20453;-62
2022/12/07 12:42:19;;;;;;;1.20;1.10;;;19.30;39.60;;;;;;4981321;28;20945;-62
2022/12/07 12:44:32;;;;;;;1.30;1.20;;;19.30;39.60;;;;;;4983818;28;20456;-62
2022/12/07 12:47:04;;;;;;;2.10;2.00;;;19.30;39.70;;;;;;4991797;28;20556;-62
2022/12/07 12:49:37;;;;;;;1.37;1.27;;;19.30;39.70;;;;;;4999189;28;20837;-63
2022/12/07 12:52:29;;;;;;;1.37;1.27;;;19.30;39.60;;;;;;4987566;28;20464;-62
2022/12/07 12:55:09;;;;;;;1.43;1.33;;;19.30;39.60;;;;;;4981875;28;20413;-62
2022/12/07 12:57:36;;;;;;;3.70;1.20;;;19.30;39.60;;;;;;4995516;28;20469;-62
2022/12/07 13:00:22;;;;;;;1.20;1.10;;;19.30;39.60;;;;;;5000901;28;20477;-62
2022/12/07 13:02:49;;;;;;;1.63;1.17;;;19.30;39.60;;;;;;4985673;28;20457;-62
2022/12/07 13:05:20;;;;;;;1.23;1.13;;;19.30;39.60;;;;;;4981041;28;20657;-62
2022/12/07 13:07:46;;;;;;;1.30;1.20;;;19.30;39.60;;;;;;4980949;28;20885;-61
2022/12/07 13:10:30;;;;;;;1.50;1.30;;;19.30;39.60;;;;;;4990727;28;20843;-63